createdAt,value
2022-11-26T00:00:59.538Z,12.26
2022-11-26T00:03:28.041Z,12.34
2022-11-26T00:05:58.565Z,12.33
2022-11-26T00:08:33.966Z,12.29
2022-11-26T00:11:03.656Z,12.32
2022-11-26T00:13:33.430Z,12.38
2022-11-26T00:16:01.866Z,12.30
2022-11-26T00:18:30.292Z,12.29
2022-11-26T00:21:02.176Z,12.24
2022-11-26T00:23:31.116Z,12.22
2022-11-26T00:26:02.631Z,12.19
2022-11-26T00:28:35.475Z,12.21
2022-11-26T00:31:07.327Z,12.15
2022-11-26T00:33:35.858Z,12.22
2022-11-26T00:36:15.035Z,12.25
2022-11-26T00:38:43.969Z,12.27
2022-11-26T00:41:18.976Z,12.17
2022-11-26T00:43:48.854Z,12.17
2022-11-26T00:46:17.654Z,12.13
2022-11-26T00:48:46.036Z,12.25
2022-11-26T00:51:18.906Z,12.22
2022-11-26T00:53:48.953Z,12.13
2022-11-26T00:56:20.037Z,12.12
2022-11-26T00:58:51.720Z,12.07
2022-11-26T01:01:24.809Z,12.10
2022-11-26T01:03:53.928Z,12.00
2022-11-26T01:06:27.586Z,12.05
2022-11-26T01:08:56.098Z,12.04
2022-11-26T01:11:25.830Z,12.07
2022-11-26T01:13:56.894Z,12.13
2022-11-26T01:16:29.255Z,12.08
2022-11-26T01:19:00.572Z,12.15
2022-11-26T01:21:33.472Z,12.09
2022-11-26T01:24:01.908Z,12.23
2022-11-26T01:26:38.141Z,12.21
2022-11-26T01:29:08.616Z,12.16
2022-11-26T01:31:37.994Z,12.21
2022-11-26T01:34:06.574Z,12.21
2022-11-26T01:36:37.390Z,12.25
2022-11-26T01:39:15.063Z,12.14
2022-11-26T01:41:49.193Z,12.27
2022-11-26T01:44:22.225Z,12.25
2022-11-26T01:46:52.804Z,12.12
2022-11-26T01:49:24.785Z,12.02
2022-11-26T01:52:02.520Z,12.06
2022-11-26T01:54:32.089Z,12.15
2022-11-26T01:57:08.456Z,12.10
2022-11-26T01:59:42.335Z,11.89
2022-11-26T02:02:11.051Z,11.83
2022-11-26T02:04:44.730Z,11.87
2022-11-26T02:07:13.460Z,12.02
2022-11-26T02:09:42.391Z,11.79
2022-11-26T02:12:10.955Z,11.81
2022-11-26T02:14:44.792Z,11.65
2022-11-26T02:17:21.535Z,11.70
2022-11-26T02:20:32.792Z,11.84
2022-11-26T02:23:32.430Z,11.97
2022-11-26T02:26:54.983Z,11.88
2022-11-26T02:29:30.063Z,11.78
2022-11-26T02:32:07.480Z,11.70
2022-11-26T02:34:44.221Z,11.72
2022-11-26T02:37:17.786Z,11.54
2022-11-26T02:39:48.714Z,11.54
2022-11-26T02:42:27.882Z,11.55
2022-11-26T02:44:58.761Z,11.50
2022-11-26T02:47:30.493Z,11.42
2022-11-26T02:50:04.047Z,11.61
2022-11-26T02:52:35.876Z,11.71
2022-11-26T02:55:07.175Z,11.45
2022-11-26T02:57:41.092Z,11.49
2022-11-26T03:00:10.824Z,11.60
2022-11-26T03:02:46.244Z,11.69
2022-11-26T03:05:17.779Z,11.58
2022-11-26T03:07:49.439Z,11.50
2022-11-26T03:10:20.264Z,11.50
2022-11-26T03:12:49.299Z,11.42
2022-11-26T03:15:18.018Z,11.55
2022-11-26T03:17:48.233Z,11.57
2022-11-26T03:20:17.429Z,11.72
2022-11-26T03:22:46.372Z,11.63
2022-11-26T03:25:15.160Z,11.47
2022-11-26T03:27:43.901Z,11.35
2022-11-26T03:30:13.127Z,11.51
2022-11-26T03:32:41.749Z,11.64
2022-11-26T03:35:12.184Z,11.70
2022-11-26T03:37:40.969Z,11.67
2022-11-26T03:40:10.662Z,11.68
2022-11-26T03:42:39.337Z,11.67
2022-11-26T03:45:08.763Z,11.57
2022-11-26T03:47:37.376Z,11.60
2022-11-26T03:50:06.856Z,11.56
2022-11-26T03:52:37.186Z,11.65
2022-11-26T03:55:06.175Z,11.74
2022-11-26T03:57:34.854Z,11.67
2022-11-26T04:00:04.770Z,11.76
2022-11-26T04:02:33.428Z,11.57
2022-11-26T04:05:02.049Z,11.55
2022-11-26T04:07:30.739Z,11.55
2022-11-26T04:10:00.768Z,11.51
2022-11-26T04:12:29.343Z,11.47
2022-11-26T04:14:57.981Z,11.47
2022-11-26T04:17:26.598Z,11.73
2022-11-26T04:19:55.235Z,11.72
2022-11-26T04:22:23.848Z,11.73
2022-11-26T04:24:52.543Z,11.70
2022-11-26T04:27:22.520Z,11.85
2022-11-26T04:29:51.130Z,11.69
2022-11-26T04:32:19.737Z,11.72
2022-11-26T04:34:48.393Z,11.73
2022-11-26T04:37:17.037Z,11.51
2022-11-26T04:39:45.670Z,11.54
2022-11-26T04:42:14.267Z,11.53
2022-11-26T04:44:44.269Z,11.50
2022-11-26T04:47:12.863Z,11.45
2022-11-26T04:49:41.483Z,11.53
2022-11-26T04:52:10.094Z,11.51
2022-11-26T04:54:39.157Z,11.66
2022-11-26T04:57:08.036Z,11.30
2022-11-26T04:59:36.680Z,11.29
2022-11-26T05:02:06.711Z,11.12
2022-11-26T05:04:35.174Z,11.31
2022-11-26T05:07:03.635Z,11.21
2022-11-26T05:09:32.037Z,11.22
2022-11-26T05:12:00.368Z,11.32
2022-11-26T05:14:28.759Z,10.79
2022-11-26T05:16:57.428Z,11.00
2022-11-26T05:19:27.474Z,11.12
2022-11-26T05:21:56.112Z,11.02
2022-11-26T05:24:24.955Z,11.22
2022-11-26T05:26:56.889Z,11.29
2022-11-26T05:29:26.725Z,11.15
2022-11-26T05:31:55.398Z,11.24
2022-11-26T05:34:24.103Z,11.19
2022-11-26T05:36:54.128Z,11.12
2022-11-26T05:39:23.143Z,11.30
2022-11-26T05:41:51.782Z,11.35
2022-11-26T05:44:20.389Z,11.21
2022-11-26T05:46:49.004Z,11.22
2022-11-26T05:49:17.671Z,11.18
2022-11-26T05:51:46.342Z,11.42
2022-11-26T05:54:17.399Z,11.39
2022-11-26T05:56:46.317Z,11.43
2022-11-26T05:59:14.990Z,11.35
2022-11-26T06:01:43.652Z,11.37
2022-11-26T06:04:12.263Z,11.40
2022-11-26T06:06:40.895Z,11.39
2022-11-26T06:09:09.524Z,10.99
2022-11-26T06:11:39.523Z,11.13
2022-11-26T06:14:08.750Z,10.98
2022-11-26T06:16:37.507Z,10.85
2022-11-26T06:19:05.937Z,10.65
2022-11-26T06:21:34.343Z,10.89
2022-11-26T06:24:02.753Z,10.72
2022-11-26T06:26:31.102Z,10.81
2022-11-26T06:29:00.836Z,10.80
2022-11-26T06:31:29.384Z,10.45
2022-11-26T06:33:57.992Z,10.84
2022-11-26T06:36:26.823Z,11.10
2022-11-26T06:38:55.182Z,11.04
2022-11-26T06:41:23.582Z,10.91
2022-11-26T06:43:51.889Z,10.97
2022-11-26T06:46:21.649Z,10.81
2022-11-26T06:48:50.052Z,10.70
2022-11-26T06:51:20.588Z,11.02
2022-11-26T06:53:49.392Z,10.85
2022-11-26T06:56:19.462Z,10.59
2022-11-26T06:58:48.627Z,10.85
2022-11-26T07:01:19.401Z,10.72
2022-11-26T07:03:49.486Z,10.80
2022-11-26T07:06:19.347Z,11.02
2022-11-26T07:08:48.171Z,11.04
2022-11-26T07:11:17.048Z,11.08
2022-11-26T07:13:45.958Z,10.71
2022-11-26T07:16:14.896Z,10.91
2022-11-26T07:18:43.421Z,10.96
2022-11-26T07:21:14.581Z,11.18
2022-11-26T07:23:42.996Z,10.90
2022-11-26T07:26:12.406Z,10.96
2022-11-26T07:28:40.873Z,11.11
2022-11-26T07:31:16.465Z,11.03
2022-11-26T07:33:45.992Z,11.08
2022-11-26T07:36:18.407Z,11.03
2022-11-26T07:38:47.234Z,11.23
2022-11-26T07:41:17.987Z,11.00
2022-11-26T07:43:47.203Z,10.32
2022-11-26T07:46:19.159Z,10.74
2022-11-26T07:48:48.016Z,10.19
2022-11-26T07:51:21.294Z,10.47
2022-11-26T07:53:50.285Z,10.68
2022-11-26T07:56:19.679Z,10.72
2022-11-26T07:58:48.564Z,10.00
2022-11-26T08:01:19.631Z,10.13
2022-11-26T08:03:50.517Z,10.30
2022-11-26T08:06:22.898Z,10.52
2022-11-26T08:08:51.883Z,10.09
2022-11-26T08:11:24.367Z,10.53
2022-11-26T08:13:56.117Z,10.38
2022-11-26T08:16:27.713Z,10.04
2022-11-26T08:18:58.890Z,9.95
2022-11-26T08:21:29.276Z,10.17
2022-11-26T08:23:57.751Z,9.84
2022-11-26T08:26:33.992Z,9.43
2022-11-26T08:29:04.743Z,10.06
2022-11-26T08:31:34.948Z,9.78
2022-11-26T08:34:05.034Z,10.43
2022-11-26T08:36:34.850Z,10.67
2022-11-26T08:39:03.497Z,10.41
2022-11-26T08:41:31.878Z,10.42
2022-11-26T08:44:08.474Z,10.33
2022-11-26T08:46:38.168Z,9.90
2022-11-26T08:49:07.533Z,10.47
2022-11-26T08:51:37.340Z,10.65
2022-11-26T08:54:05.896Z,10.35
2022-11-26T08:56:35.222Z,10.30
2022-11-26T08:59:03.944Z,9.40
2022-11-26T09:01:34.313Z,10.48
2022-11-26T09:04:05.256Z,10.02
2022-11-26T09:06:37.853Z,9.33
2022-11-26T09:09:18.002Z,9.86
2022-11-26T09:11:50.479Z,9.31
2022-11-26T09:14:22.962Z,9.50
2022-11-26T09:16:51.425Z,10.06
2022-11-26T09:19:20.004Z,10.30
2022-11-26T09:21:50.026Z,10.82
2022-11-26T09:24:18.792Z,9.33
2022-11-26T09:26:48.451Z,9.95
2022-11-26T09:29:19.913Z,10.30
2022-11-26T09:32:21.464Z,9.95
2022-11-26T09:34:38.357Z,10.51
2022-11-26T09:37:08.376Z,10.51
2022-11-26T09:39:36.717Z,10.65
2022-11-26T09:42:08.335Z,11.16
2022-11-26T09:44:57.988Z,10.55
2022-11-26T09:47:29.614Z,9.97
2022-11-26T09:50:08.979Z,10.26
2022-11-26T09:52:44.117Z,10.34
2022-11-26T09:55:19.468Z,10.45
2022-11-26T09:57:56.490Z,10.84
2022-11-26T10:00:28.195Z,11.56
2022-11-26T10:02:58.244Z,11.41
2022-11-26T10:05:43.502Z,10.50
2022-11-26T10:08:29.214Z,10.63
2022-11-26T10:11:04.135Z,10.11
2022-11-26T10:13:46.117Z,10.37
2022-11-26T10:16:27.994Z,10.65
2022-11-26T10:19:07.777Z,10.35
2022-11-26T10:24:36.202Z,9.54
2022-11-26T10:27:14.135Z,9.82
2022-11-26T10:29:44.947Z,10.14
2022-11-26T10:32:17.887Z,9.71
2022-11-26T10:34:52.359Z,9.95
2022-11-26T10:37:23.226Z,10.32
2022-11-26T10:40:02.018Z,10.09
2022-11-26T10:42:43.236Z,10.13
2022-11-26T10:45:21.998Z,10.26
2022-11-26T10:47:50.480Z,9.48
2022-11-26T10:50:46.519Z,9.88
2022-11-26T10:53:23.561Z,9.26
2022-11-26T10:55:55.748Z,9.57
2022-11-26T10:58:27.276Z,9.99
2022-11-26T11:01:02.404Z,10.03
2022-11-26T11:06:41.804Z,9.31
2022-11-26T11:09:35.201Z,9.37
2022-11-26T11:12:22.543Z,9.89
2022-11-26T11:14:52.430Z,9.92
2022-11-26T11:17:35.886Z,10.44
2022-11-26T11:20:28.019Z,10.09
2022-11-26T11:23:08.807Z,9.93
2022-11-26T11:25:40.886Z,10.28
2022-11-26T11:28:19.597Z,11.15
2022-11-26T11:30:58.660Z,10.93
2022-11-26T11:33:29.435Z,11.59
2022-11-26T11:36:05.071Z,10.87
2022-11-26T11:38:46.770Z,10.79
2022-11-26T11:41:28.406Z,9.77
2022-11-26T11:44:07.189Z,10.01
2022-11-26T11:47:01.699Z,10.37
2022-11-26T11:49:49.825Z,10.34
2022-11-26T11:52:30.052Z,10.59
2022-11-26T11:55:10.439Z,10.64
2022-11-26T11:58:16.453Z,9.34
2022-11-26T12:00:54.318Z,9.54
2022-11-26T12:04:09.299Z,9.73
2022-11-26T12:06:50.584Z,10.54
2022-11-26T12:09:32.662Z,9.76
2022-11-26T12:12:07.020Z,9.54
2022-11-26T12:14:42.671Z,9.73
2022-11-26T12:17:18.582Z,9.66
2022-11-26T12:19:53.599Z,9.90
2022-11-26T12:22:27.927Z,9.61
2022-11-26T12:25:00.138Z,9.55
2022-11-26T12:27:36.751Z,9.54
2022-11-26T12:30:08.729Z,9.88
2022-11-26T12:32:47.313Z,10.13
2022-11-26T12:35:28.337Z,9.51
2022-11-26T12:38:03.617Z,9.57
2022-11-26T12:40:38.847Z,9.72
2022-11-26T12:43:15.071Z,9.73
2022-11-26T12:45:51.817Z,9.83
2022-11-26T12:48:42.477Z,9.34
2022-11-26T12:51:28.022Z,9.19
2022-11-26T12:54:11.123Z,9.42
2022-11-26T12:56:55.077Z,9.38
2022-11-26T12:59:32.384Z,9.54
2022-11-26T13:02:02.450Z,9.64
2022-11-26T13:04:39.690Z,10.10
2022-11-26T13:07:20.501Z,9.59
2022-11-26T13:10:02.915Z,9.84
2022-11-26T13:12:46.685Z,9.57
2022-11-26T13:15:24.050Z,9.67
2022-11-26T13:17:53.138Z,9.66
2022-11-26T13:20:54.505Z,9.44
2022-11-26T13:23:44.267Z,9.82
2022-11-26T13:26:46.751Z,9.47
2022-11-26T13:29:39.299Z,10.04
2022-11-26T13:32:42.641Z,9.71
2022-11-26T13:35:26.942Z,9.72
2022-11-26T13:38:16.228Z,9.48
2022-11-26T13:41:15.242Z,9.54
2022-11-26T13:44:46.863Z,9.49
2022-11-26T13:47:23.578Z,9.77
2022-11-26T13:49:58.351Z,9.64
2022-11-26T13:52:35.691Z,9.54
2022-11-26T13:55:13.207Z,9.52
2022-11-26T13:57:48.021Z,9.58
2022-11-26T14:00:27.435Z,9.73
2022-11-26T14:02:56.472Z,9.48
2022-11-26T14:05:25.439Z,9.52
2022-11-26T14:08:34.901Z,9.66
2022-11-26T14:11:05.031Z,9.47
2022-11-26T14:13:33.581Z,9.85
2022-11-26T14:16:06.346Z,9.74
2022-11-26T14:19:08.007Z,9.73
2022-11-26T14:22:03.751Z,9.62
2022-11-26T14:24:56.112Z,9.49
2022-11-26T14:27:28.999Z,9.27
2022-11-26T14:30:20.764Z,9.49
2022-11-26T14:33:01.234Z,9.74
2022-11-26T14:35:34.427Z,9.81
2022-11-26T14:38:06.181Z,9.51
2022-11-26T14:40:36.911Z,9.46
2022-11-26T14:43:16.330Z,9.65
2022-11-26T14:45:47.126Z,9.45
2022-11-26T14:48:27.801Z,9.70
2022-11-26T14:50:59.131Z,10.26
2022-11-26T14:53:31.534Z,10.14
2022-11-26T14:56:00.791Z,9.67
2022-11-26T14:58:37.437Z,9.34
2022-11-26T15:01:18.310Z,9.54
2022-11-26T15:03:57.366Z,9.87
2022-11-26T15:06:34.993Z,9.99
2022-11-26T15:09:15.568Z,10.14
2022-11-26T15:11:49.227Z,9.94
2022-11-26T15:14:25.213Z,9.83
2022-11-26T15:17:00.101Z,9.37
2022-11-26T15:19:33.340Z,9.23
2022-11-26T15:22:05.909Z,9.64
2022-11-26T15:24:34.387Z,9.57
2022-11-26T15:27:02.830Z,9.54
2022-11-26T15:29:35.381Z,9.28
2022-11-26T15:32:05.721Z,8.94
2022-11-26T15:34:34.986Z,9.11
2022-11-26T15:37:05.041Z,8.93
2022-11-26T15:39:33.651Z,8.91
2022-11-26T15:42:07.934Z,8.85
2022-11-26T15:44:42.638Z,9.42
2022-11-26T15:47:20.250Z,9.17
2022-11-26T15:49:54.962Z,8.94
2022-11-26T15:52:27.113Z,8.62
2022-11-26T15:55:18.400Z,8.64
2022-11-26T15:57:52.105Z,9.16
2022-11-26T16:00:29.168Z,9.00
2022-11-26T16:02:57.572Z,9.13
2022-11-26T16:05:32.624Z,9.25
2022-11-26T16:08:03.713Z,9.14
2022-11-26T16:10:35.613Z,9.27
2022-11-26T16:13:17.462Z,8.90
2022-11-26T16:15:51.430Z,9.01
2022-11-26T16:18:23.324Z,8.68
2022-11-26T16:21:01.268Z,8.73
2022-11-26T16:23:31.459Z,8.60
2022-11-26T16:26:16.481Z,8.68
2022-11-26T16:28:46.333Z,9.12
2022-11-26T16:31:17.718Z,9.60
2022-11-26T16:33:46.884Z,9.71
2022-11-26T16:36:27.123Z,9.84
2022-11-26T16:38:55.517Z,10.23
2022-11-26T16:41:24.741Z,10.11
2022-11-26T16:43:53.162Z,9.76
2022-11-26T16:46:26.008Z,9.97
2022-11-26T16:48:54.565Z,9.72
2022-11-26T16:51:23.696Z,9.90
2022-11-26T16:53:52.118Z,9.42
2022-11-26T16:56:24.114Z,9.79
2022-11-26T16:58:52.922Z,9.50
2022-11-26T17:01:22.678Z,9.63
2022-11-26T17:03:51.256Z,9.56
2022-11-26T17:06:26.893Z,10.31
2022-11-26T17:08:57.084Z,10.44
2022-11-26T17:11:25.942Z,9.62
2022-11-26T17:13:55.017Z,9.25
2022-11-26T17:16:26.291Z,10.00
2022-11-26T17:18:55.177Z,9.14
2022-11-26T17:21:23.543Z,10.22
2022-11-26T17:23:51.907Z,10.49
2022-11-26T17:26:23.747Z,9.98
2022-11-26T17:28:52.581Z,9.31
2022-11-26T17:31:21.398Z,9.00
2022-11-26T17:33:51.579Z,9.60
2022-11-26T17:36:22.018Z,9.91
2022-11-26T17:38:51.494Z,10.06
2022-11-26T17:41:20.560Z,9.52
2022-11-26T17:43:48.931Z,9.27
2022-11-26T17:46:20.581Z,9.16
2022-11-26T17:48:55.517Z,9.66
2022-11-26T17:51:26.775Z,9.52
2022-11-26T17:53:55.112Z,9.27
2022-11-26T17:56:27.011Z,9.75
2022-11-26T17:58:55.990Z,9.67
2022-11-26T18:01:24.440Z,10.08
2022-11-26T18:03:54.271Z,10.43
2022-11-26T18:06:34.047Z,10.53
2022-11-26T18:09:02.659Z,10.45
2022-11-26T18:11:45.323Z,10.32
2022-11-26T18:14:14.616Z,10.23
2022-11-26T18:16:43.472Z,10.40
2022-11-26T18:19:15.260Z,9.28
2022-11-26T18:21:43.918Z,9.93
2022-11-26T18:24:13.113Z,10.01
2022-11-26T18:26:41.971Z,8.87
2022-11-26T18:29:11.137Z,9.35
2022-11-26T18:31:40.336Z,9.20
2022-11-26T18:34:09.135Z,9.20
2022-11-26T18:36:39.144Z,9.45
2022-11-26T18:39:08.073Z,8.77
2022-11-26T18:41:36.934Z,9.80
2022-11-26T18:44:06.026Z,9.74
2022-11-26T18:46:34.758Z,8.99
2022-11-26T18:49:03.601Z,9.54
2022-11-26T18:51:32.215Z,9.92
2022-11-26T18:54:02.851Z,9.77
2022-11-26T18:56:31.188Z,9.80
2022-11-26T18:58:59.923Z,10.35
2022-11-26T19:01:30.540Z,9.81
2022-11-26T19:04:00.259Z,9.84
2022-11-26T19:06:31.877Z,10.16
2022-11-26T19:09:05.436Z,10.51
2022-11-26T19:11:34.189Z,9.86
2022-11-26T19:14:02.907Z,9.77
2022-11-26T19:16:31.375Z,9.55
2022-11-26T19:19:02.884Z,9.47
2022-11-26T19:21:33.842Z,10.14
2022-11-26T19:24:06.744Z,9.63
2022-11-26T19:26:36.781Z,9.67
2022-11-26T19:29:06.970Z,9.44
2022-11-26T19:31:39.089Z,9.20
2022-11-26T19:34:10.319Z,9.64
2022-11-26T19:36:39.099Z,9.88
2022-11-26T19:39:09.655Z,10.11
2022-11-26T19:41:37.957Z,9.44
2022-11-26T19:44:07.146Z,9.49
2022-11-26T19:46:40.584Z,10.19
2022-11-26T19:49:12.588Z,9.94
2022-11-26T19:51:41.665Z,9.60
2022-11-26T19:54:11.608Z,9.48
2022-11-26T19:56:40.248Z,9.59
2022-11-26T19:59:08.551Z,9.30
2022-11-26T20:01:37.042Z,9.49
2022-11-26T20:04:08.823Z,9.30
2022-11-26T20:06:38.205Z,9.82
2022-11-26T20:09:08.867Z,8.87
2022-11-26T20:11:40.725Z,8.98
2022-11-26T20:14:10.833Z,9.09
2022-11-26T20:16:41.631Z,9.14
2022-11-26T20:19:11.215Z,9.06
2022-11-26T20:21:40.172Z,8.89
2022-11-26T20:24:13.718Z,8.85
2022-11-26T20:26:45.533Z,9.42
2022-11-26T20:29:16.894Z,9.07
2022-11-26T20:31:47.986Z,9.65
2022-11-26T20:34:17.512Z,8.23
2022-11-26T20:36:46.491Z,8.36
2022-11-26T20:39:16.459Z,9.34
2022-11-26T20:41:46.776Z,10.01
2022-11-26T20:44:15.825Z,9.89
2022-11-26T20:46:44.786Z,10.29
2022-11-26T20:49:15.923Z,10.01
2022-11-26T20:51:44.581Z,9.82
2022-11-26T20:54:13.197Z,9.23
2022-11-26T20:56:41.900Z,9.80
2022-11-26T20:59:11.855Z,9.32
2022-11-26T21:01:40.688Z,10.04
2022-11-26T21:04:09.384Z,9.15
2022-11-26T21:06:38.005Z,9.96
2022-11-26T21:09:07.432Z,9.48
2022-11-26T21:11:36.672Z,10.20
2022-11-26T21:14:07.551Z,9.65
2022-11-26T21:16:40.970Z,9.95
2022-11-26T21:19:12.294Z,8.65
2022-11-26T21:21:40.982Z,9.40
2022-11-26T21:24:10.185Z,8.89
2022-11-26T21:26:38.844Z,9.38
2022-11-26T21:29:07.416Z,8.96
2022-11-26T21:31:36.105Z,9.14
2022-11-26T21:34:07.762Z,9.27
2022-11-26T21:36:37.514Z,9.51
2022-11-26T21:39:06.638Z,9.23
2022-11-26T21:41:35.288Z,8.49
2022-11-26T21:44:04.318Z,9.06
2022-11-26T21:46:38.852Z,9.02
2022-11-26T21:49:09.190Z,9.12
2022-11-26T21:51:37.930Z,8.76
2022-11-26T21:54:06.948Z,8.37
2022-11-26T21:56:35.841Z,7.99
2022-11-26T21:59:04.258Z,8.83
2022-11-26T22:01:35.424Z,8.58
2022-11-26T22:04:07.263Z,8.54
2022-11-26T22:06:37.828Z,8.89
2022-11-26T22:09:07.043Z,8.73
2022-11-26T22:11:37.711Z,8.71
2022-11-26T22:14:07.261Z,8.57
2022-11-26T22:16:36.639Z,8.03
2022-11-26T22:19:05.693Z,8.57
2022-11-26T22:21:38.474Z,8.58
2022-11-26T22:24:09.508Z,9.17
2022-11-26T22:26:38.933Z,8.57
2022-11-26T22:29:07.811Z,8.35
2022-11-26T22:31:38.826Z,9.00
2022-11-26T22:34:09.640Z,8.36
2022-11-26T22:36:40.315Z,8.48
2022-11-26T22:39:11.743Z,8.72
2022-11-26T22:41:40.857Z,8.80
2022-11-26T22:44:09.543Z,8.40
2022-11-26T22:46:39.238Z,8.53
2022-11-26T22:49:08.385Z,8.64
2022-11-26T22:51:39.415Z,9.15
2022-11-26T22:54:09.542Z,8.48
2022-11-26T22:56:38.957Z,8.76
2022-11-26T22:59:09.106Z,8.33
2022-11-26T23:01:38.344Z,8.37
2022-11-26T23:04:09.311Z,7.36
2022-11-26T23:06:40.616Z,7.47
2022-11-26T23:09:10.509Z,7.60
2022-11-26T23:11:41.606Z,8.04
2022-11-26T23:14:12.086Z,7.51
2022-11-26T23:16:42.996Z,8.43
2022-11-26T23:19:14.169Z,7.78
2022-11-26T23:21:46.889Z,7.35
2022-11-26T23:24:16.685Z,8.13
2022-11-26T23:26:45.709Z,7.87
2022-11-26T23:29:15.175Z,7.26
2022-11-26T23:31:45.421Z,7.07
2022-11-26T23:34:15.375Z,7.16
2022-11-26T23:36:45.383Z,6.75
2022-11-26T23:39:14.690Z,7.57
2022-11-26T23:41:43.754Z,7.49
2022-11-26T23:44:12.463Z,7.37
2022-11-26T23:46:41.232Z,7.91
2022-11-26T23:49:09.911Z,7.66
2022-11-26T23:51:38.562Z,7.78
2022-11-26T23:54:08.608Z,7.92
2022-11-26T23:56:37.567Z,8.30
2022-11-26T23:59:07.006Z,9.25
